sensor_id;sensor_type;location;lat;lon;timestamp;P1;durP1;ratioP1;P2;durP2;ratioP2
56423;SDS011;42329;43.516;3.684;2022-09-25T00:00:35;1.70;;;1.20;;
56423;SDS011;42329;43.516;3.684;2022-09-25T00:03:05;1.95;;;1.50;;
56423;SDS011;42329;43.516;3.684;2022-09-25T00:05:34;1.58;;;1.00;;
56423;SDS011;42329;43.516;3.684;2022-09-25T00:08:02;1.50;;;1.20;;
56423;SDS011;42329;43.516;3.684;2022-09-25T00:10:29;2.50;;;1.38;;
56423;SDS011;42329;43.516;3.684;2022-09-25T00:12:57;2.47;;;1.00;;
56423;SDS011;42329;43.516;3.684;2022-09-25T00:15:25;1.50;;;0.98;;
56423;SDS011;42329;43.516;3.684;2022-09-25T00:17:52;2.38;;;1.00;;
56423;SDS011;42329;43.516;3.684;2022-09-25T00:20:21;3.22;;;1.10;;
56423;SDS011;42329;43.516;3.684;2022-09-25T00:22:48;2.05;;;1.10;;
56423;SDS011;42329;43.516;3.684;2022-09-25T00:25:17;4.53;;;1.70;;
56423;SDS011;42329;43.516;3.684;2022-09-25T00:27:45;3.80;;;1.05;;
56423;SDS011;42329;43.516;3.684;2022-09-25T00:30:14;2.25;;;1.10;;
56423;SDS011;42329;43.516;3.684;2022-09-25T00:32:42;2.47;;;1.45;;
56423;SDS011;42329;43.516;3.684;2022-09-25T00:35:09;4.22;;;1.38;;
56423;SDS011;42329;43.516;3.684;2022-09-25T00:37:38;1.48;;;0.82;;
56423;SDS011;42329;43.516;3.684;2022-09-25T00:40:06;1.00;;;1.00;;
56423;SDS011;42329;43.516;3.684;2022-09-25T00:42:34;3.13;;;1.52;;
56423;SDS011;42329;43.516;3.684;2022-09-25T00:45:02;1.67;;;1.00;;
56423;SDS011;42329;43.516;3.684;2022-09-25T00:47:32;1.83;;;1.02;;
56423;SDS011;42329;43.516;3.684;2022-09-25T00:50:04;1.67;;;1.10;;
56423;SDS011;42329;43.516;3.684;2022-09-25T00:52:42;2.92;;;1.40;;
56423;SDS011;42329;43.516;3.684;2022-09-25T00:55:09;1.52;;;1.05;;
56423;SDS011;42329;43.516;3.684;2022-09-25T00:57:37;1.58;;;1.20;;
56423;SDS011;42329;43.516;3.684;2022-09-25T01:00:07;3.15;;;1.17;;
56423;SDS011;42329;43.516;3.684;2022-09-25T01:02:36;1.85;;;1.20;;
56423;SDS011;42329;43.516;3.684;2022-09-25T01:05:07;1.58;;;1.00;;
56423;SDS011;42329;43.516;3.684;2022-09-25T01:07:36;4.43;;;1.45;;
56423;SDS011;42329;43.516;3.684;2022-09-25T01:10:06;2.05;;;1.40;;
56423;SDS011;42329;43.516;3.684;2022-09-25T01:12:34;1.45;;;1.23;;
56423;SDS011;42329;43.516;3.684;2022-09-25T01:15:03;1.35;;;1.25;;
56423;SDS011;42329;43.516;3.684;2022-09-25T01:17:33;4.43;;;1.33;;
56423;SDS011;42329;43.516;3.684;2022-09-25T01:20:05;1.55;;;1.20;;
56423;SDS011;42329;43.516;3.684;2022-09-25T01:22:37;1.75;;;1.13;;
56423;SDS011;42329;43.516;3.684;2022-09-25T01:25:14;1.20;;;1.08;;
56423;SDS011;42329;43.516;3.684;2022-09-25T01:27:51;1.38;;;1.10;;
56423;SDS011;42329;43.516;3.684;2022-09-25T01:30:30;3.28;;;1.50;;
56423;SDS011;42329;43.516;3.684;2022-09-25T01:33:01;1.60;;;1.30;;
56423;SDS011;42329;43.516;3.684;2022-09-25T01:35:33;3.73;;;1.53;;
56423;SDS011;42329;43.516;3.684;2022-09-25T01:38:03;2.03;;;1.00;;
56423;SDS011;42329;43.516;3.684;2022-09-25T01:40:33;1.20;;;0.95;;
56423;SDS011;42329;43.516;3.684;2022-09-25T01:43:04;3.55;;;1.30;;
56423;SDS011;42329;43.516;3.684;2022-09-25T01:45:37;1.40;;;1.30;;
56423;SDS011;42329;43.516;3.684;2022-09-25T01:50:34;2.20;;;1.25;;
56423;SDS011;42329;43.516;3.684;2022-09-25T01:53:03;2.83;;;1.33;;
56423;SDS011;42329;43.516;3.684;2022-09-25T01:55:34;5.72;;;1.42;;
56423;SDS011;42329;43.516;3.684;2022-09-25T01:58:06;0.98;;;0.90;;
56423;SDS011;42329;43.516;3.684;2022-09-25T02:03:06;1.40;;;0.95;;
56423;SDS011;42329;43.516;3.684;2022-09-25T02:05:37;2.20;;;1.40;;
56423;SDS011;42329;43.516;3.684;2022-09-25T02:08:07;2.30;;;0.98;;
56423;SDS011;42329;43.516;3.684;2022-09-25T02:10:38;3.20;;;1.40;;
56423;SDS011;42329;43.516;3.684;2022-09-25T02:13:10;7.07;;;1.95;;
56423;SDS011;42329;43.516;3.684;2022-09-25T02:15:39;2.28;;;1.23;;
56423;SDS011;42329;43.516;3.684;2022-09-25T02:18:10;3.42;;;1.20;;
56423;SDS011;42329;43.516;3.684;2022-09-25T02:20:57;1.98;;;1.40;;
56423;SDS011;42329;43.516;3.684;2022-09-25T02:23:28;2.40;;;1.25;;
56423;SDS011;42329;43.516;3.684;2022-09-25T02:26:02;2.80;;;1.45;;
56423;SDS011;42329;43.516;3.684;2022-09-25T02:28:31;3.60;;;1.13;;
56423;SDS011;42329;43.516;3.684;2022-09-25T02:30:59;4.65;;;1.35;;
56423;SDS011;42329;43.516;3.684;2022-09-25T02:33:29;1.38;;;1.00;;
56423;SDS011;42329;43.516;3.684;2022-09-25T02:35:57;2.25;;;1.05;;
56423;SDS011;42329;43.516;3.684;2022-09-25T02:38:26;2.03;;;1.30;;
56423;SDS011;42329;43.516;3.684;2022-09-25T02:40:55;1.00;;;0.90;;
56423;SDS011;42329;43.516;3.684;2022-09-25T02:43:34;3.65;;;1.23;;
56423;SDS011;42329;43.516;3.684;2022-09-25T02:46:05;1.92;;;1.35;;
56423;SDS011;42329;43.516;3.684;2022-09-25T02:48:37;1.58;;;1.30;;
56423;SDS011;42329;43.516;3.684;2022-09-25T02:51:10;2.00;;;1.20;;
56423;SDS011;42329;43.516;3.684;2022-09-25T02:53:40;2.25;;;1.52;;
56423;SDS011;42329;43.516;3.684;2022-09-25T02:56:09;1.55;;;1.10;;
56423;SDS011;42329;43.516;3.684;2022-09-25T02:58:39;3.92;;;1.42;;
56423;SDS011;42329;43.516;3.684;2022-09-25T03:01:08;1.88;;;0.93;;
56423;SDS011;42329;43.516;3.684;2022-09-25T03:03:38;2.17;;;1.15;;
56423;SDS011;42329;43.516;3.684;2022-09-25T03:06:06;1.38;;;1.05;;
56423;SDS011;42329;43.516;3.684;2022-09-25T03:08:35;1.77;;;1.10;;
56423;SDS011;42329;43.516;3.684;2022-09-25T03:11:02;3.42;;;1.48;;
56423;SDS011;42329;43.516;3.684;2022-09-25T03:13:30;2.05;;;1.15;;
56423;SDS011;42329;43.516;3.684;2022-09-25T03:15:59;3.17;;;1.25;;
56423;SDS011;42329;43.516;3.684;2022-09-25T03:18:28;1.40;;;1.25;;
56423;SDS011;42329;43.516;3.684;2022-09-25T03:20:57;1.38;;;1.20;;
56423;SDS011;42329;43.516;3.684;2022-09-25T03:23:25;1.35;;;1.08;;
56423;SDS011;42329;43.516;3.684;2022-09-25T03:25:53;1.65;;;1.20;;
56423;SDS011;42329;43.516;3.684;2022-09-25T03:28:20;2.88;;;1.00;;
56423;SDS011;42329;43.516;3.684;2022-09-25T03:30:55;2.00;;;1.20;;
56423;SDS011;42329;43.516;3.684;2022-09-25T03:33:23;1.42;;;1.13;;
56423;SDS011;42329;43.516;3.684;2022-09-25T03:36:00;1.60;;;1.02;;
56423;SDS011;42329;43.516;3.684;2022-09-25T03:38:27;1.58;;;1.05;;
56423;SDS011;42329;43.516;3.684;2022-09-25T03:40:55;1.25;;;0.90;;
56423;SDS011;42329;43.516;3.684;2022-09-25T03:43:22;1.27;;;1.05;;
56423;SDS011;42329;43.516;3.684;2022-09-25T03:45:50;1.65;;;1.25;;
56423;SDS011;42329;43.516;3.684;2022-09-25T03:48:17;2.53;;;1.20;;
56423;SDS011;42329;43.516;3.684;2022-09-25T03:50:45;3.00;;;1.25;;
56423;SDS011;42329;43.516;3.684;2022-09-25T03:53:16;1.20;;;1.00;;
56423;SDS011;42329;43.516;3.684;2022-09-25T03:55:44;1.45;;;0.90;;
56423;SDS011;42329;43.516;3.684;2022-09-25T03:58:13;0.98;;;0.90;;
56423;SDS011;42329;43.516;3.684;2022-09-25T04:00:41;1.65;;;1.15;;
56423;SDS011;42329;43.516;3.684;2022-09-25T04:03:08;1.60;;;1.13;;
56423;SDS011;42329;43.516;3.684;2022-09-25T04:05:36;2.33;;;1.08;;
56423;SDS011;42329;43.516;3.684;2022-09-25T04:08:04;1.33;;;1.02;;
56423;SDS011;42329;43.516;3.684;2022-09-25T04:10:33;1.05;;;0.88;;
56423;SDS011;42329;43.516;3.684;2022-09-25T04:13:03;1.33;;;0.93;;
56423;SDS011;42329;43.516;3.684;2022-09-25T04:15:30;2.58;;;0.75;;
56423;SDS011;42329;43.516;3.684;2022-09-25T04:17:58;0.90;;;0.90;;
56423;SDS011;42329;43.516;3.684;2022-09-25T04:20:26;1.48;;;1.00;;
56423;SDS011;42329;43.516;3.684;2022-09-25T04:22:54;1.88;;;1.10;;
56423;SDS011;42329;43.516;3.684;2022-09-25T04:25:21;1.20;;;1.10;;
56423;SDS011;42329;43.516;3.684;2022-09-25T04:27:52;1.65;;;1.30;;
56423;SDS011;42329;43.516;3.684;2022-09-25T04:30:21;3.72;;;1.13;;
56423;SDS011;42329;43.516;3.684;2022-09-25T04:32:48;2.20;;;1.23;;
56423;SDS011;42329;43.516;3.684;2022-09-25T04:35:33;1.67;;;1.15;;
56423;SDS011;42329;43.516;3.684;2022-09-25T04:38:01;1.13;;;0.98;;
56423;SDS011;42329;43.516;3.684;2022-09-25T04:40:29;1.35;;;0.90;;
56423;SDS011;42329;43.516;3.684;2022-09-25T04:42:58;2.17;;;1.17;;
56423;SDS011;42329;43.516;3.684;2022-09-25T04:45:26;4.13;;;1.50;;
56423;SDS011;42329;43.516;3.684;2022-09-25T04:47:54;1.88;;;0.90;;
56423;SDS011;42329;43.516;3.684;2022-09-25T04:50:21;2.05;;;0.88;;
56423;SDS011;42329;43.516;3.684;2022-09-25T04:52:49;3.00;;;0.93;;
56423;SDS011;42329;43.516;3.684;2022-09-25T04:55:17;2.33;;;0.98;;
56423;SDS011;42329;43.516;3.684;2022-09-25T04:57:48;1.30;;;0.82;;
56423;SDS011;42329;43.516;3.684;2022-09-25T05:00:18;1.27;;;1.08;;
56423;SDS011;42329;43.516;3.684;2022-09-25T05:02:46;4.07;;;1.38;;
56423;SDS011;42329;43.516;3.684;2022-09-25T05:05:13;1.30;;;1.10;;
56423;SDS011;42329;43.516;3.684;2022-09-25T05:07:49;2.47;;;1.50;;
56423;SDS011;42329;43.516;3.684;2022-09-25T05:10:18;1.40;;;1.30;;
56423;SDS011;42329;43.516;3.684;2022-09-25T05:12:46;1.02;;;0.70;;
56423;SDS011;42329;43.516;3.684;2022-09-25T05:15:14;1.73;;;1.20;;
56423;SDS011;42329;43.516;3.684;2022-09-25T05:17:43;1.15;;;1.10;;
56423;SDS011;42329;43.516;3.684;2022-09-25T05:20:11;2.03;;;1.00;;
56423;SDS011;42329;43.516;3.684;2022-09-25T05:22:38;2.00;;;1.30;;
56423;SDS011;42329;43.516;3.684;2022-09-25T05:25:06;2.72;;;1.33;;
56423;SDS011;42329;43.516;3.684;2022-09-25T05:27:34;0.98;;;0.70;;
56423;SDS011;42329;43.516;3.684;2022-09-25T05:30:02;1.27;;;0.93;;
56423;SDS011;42329;43.516;3.684;2022-09-25T05:32:29;1.85;;;1.15;;
56423;SDS011;42329;43.516;3.684;2022-09-25T05:34:58;1.45;;;1.15;;
56423;SDS011;42329;43.516;3.684;2022-09-25T05:37:28;2.75;;;0.93;;
56423;SDS011;42329;43.516;3.684;2022-09-25T05:39:55;3.15;;;1.20;;
56423;SDS011;42329;43.516;3.684;2022-09-25T05:42:23;2.67;;;1.15;;
56423;SDS011;42329;43.516;3.684;2022-09-25T05:44:54;5.28;;;1.38;;
56423;SDS011;42329;43.516;3.684;2022-09-25T05:47:21;7.15;;;1.45;;
56423;SDS011;42329;43.516;3.684;2022-09-25T05:49:49;3.97;;;1.33;;
56423;SDS011;42329;43.516;3.684;2022-09-25T05:52:18;1.00;;;0.90;;
56423;SDS011;42329;43.516;3.684;2022-09-25T05:54:45;1.38;;;1.10;;
56423;SDS011;42329;43.516;3.684;2022-09-25T05:57:13;3.30;;;1.15;;
56423;SDS011;42329;43.516;3.684;2022-09-25T05:59:40;6.85;;;1.13;;
56423;SDS011;42329;43.516;3.684;2022-09-25T06:02:09;2.70;;;1.20;;
56423;SDS011;42329;43.516;3.684;2022-09-25T06:04:37;3.85;;;1.60;;
56423;SDS011;42329;43.516;3.684;2022-09-25T06:07:04;3.63;;;1.50;;
56423;SDS011;42329;43.516;3.684;2022-09-25T06:09:35;4.13;;;1.33;;
56423;SDS011;42329;43.516;3.684;2022-09-25T06:12:03;2.40;;;1.15;;
56423;SDS011;42329;43.516;3.684;2022-09-25T06:14:31;1.15;;;0.90;;
56423;SDS011;42329;43.516;3.684;2022-09-25T06:16:59;3.25;;;1.38;;
56423;SDS011;42329;43.516;3.684;2022-09-25T06:19:27;4.82;;;1.55;;
56423;SDS011;42329;43.516;3.684;2022-09-25T06:21:54;1.50;;;1.40;;
56423;SDS011;42329;43.516;3.684;2022-09-25T06:24:23;3.42;;;1.30;;
56423;SDS011;42329;43.516;3.684;2022-09-25T06:26:52;2.35;;;1.70;;
56423;SDS011;42329;43.516;3.684;2022-09-25T06:29:19;1.45;;;1.23;;
56423;SDS011;42329;43.516;3.684;2022-09-25T06:31:47;4.05;;;1.35;;
56423;SDS011;42329;43.516;3.684;2022-09-25T06:34:15;4.32;;;1.48;;
56423;SDS011;42329;43.516;3.684;2022-09-25T06:36:43;1.40;;;1.30;;
56423;SDS011;42329;43.516;3.684;2022-09-25T06:39:10;4.90;;;1.63;;
56423;SDS011;42329;43.516;3.684;2022-09-25T06:41:38;2.05;;;1.40;;
56423;SDS011;42329;43.516;3.684;2022-09-25T06:44:08;3.28;;;1.40;;
56423;SDS011;42329;43.516;3.684;2022-09-25T06:46:35;2.95;;;1.50;;
56423;SDS011;42329;43.516;3.684;2022-09-25T06:49:03;2.30;;;1.48;;
56423;SDS011;42329;43.516;3.684;2022-09-25T06:51:33;3.00;;;1.20;;
56423;SDS011;42329;43.516;3.684;2022-09-25T06:54:00;1.77;;;1.40;;
56423;SDS011;42329;43.516;3.684;2022-09-25T06:56:28;3.25;;;1.45;;
56423;SDS011;42329;43.516;3.684;2022-09-25T06:58:55;2.35;;;1.55;;
56423;SDS011;42329;43.516;3.684;2022-09-25T07:01:24;3.80;;;1.48;;
56423;SDS011;42329;43.516;3.684;2022-09-25T07:03:52;6.22;;;1.67;;
56423;SDS011;42329;43.516;3.684;2022-09-25T07:06:19;2.10;;;1.48;;
56423;SDS011;42329;43.516;3.684;2022-09-25T07:08:47;5.80;;;1.40;;
56423;SDS011;42329;43.516;3.684;2022-09-25T07:11:16;10.35;;;1.33;;
56423;SDS011;42329;43.516;3.684;2022-09-25T07:13:44;3.72;;;1.60;;
56423;SDS011;42329;43.516;3.684;2022-09-25T07:16:12;1.77;;;1.67;;
56423;SDS011;42329;43.516;3.684;2022-09-25T07:18:42;2.00;;;1.40;;
56423;SDS011;42329;43.516;3.684;2022-09-25T07:21:10;3.67;;;1.80;;
56423;SDS011;42329;43.516;3.684;2022-09-25T07:23:38;3.92;;;1.42;;
56423;SDS011;42329;43.516;3.684;2022-09-25T07:26:06;1.52;;;1.42;;
56423;SDS011;42329;43.516;3.684;2022-09-25T07:28:34;1.80;;;1.70;;
56423;SDS011;42329;43.516;3.684;2022-09-25T07:31:09;2.03;;;1.63;;
56423;SDS011;42329;43.516;3.684;2022-09-25T07:33:36;2.17;;;1.55;;
56423;SDS011;42329;43.516;3.684;2022-09-25T07:36:05;1.42;;;1.33;;
56423;SDS011;42329;43.516;3.684;2022-09-25T07:38:33;1.98;;;1.70;;
56423;SDS011;42329;43.516;3.684;2022-09-25T07:41:02;1.65;;;1.30;;
56423;SDS011;42329;43.516;3.684;2022-09-25T07:43:30;1.92;;;1.15;;
56423;SDS011;42329;43.516;3.684;2022-09-25T07:45:59;2.92;;;1.48;;
56423;SDS011;42329;43.516;3.684;2022-09-25T07:48:27;1.63;;;1.30;;
56423;SDS011;42329;43.516;3.684;2022-09-25T07:50:58;1.75;;;1.50;;
56423;SDS011;42329;43.516;3.684;2022-09-25T07:53:27;3.08;;;1.60;;
56423;SDS011;42329;43.516;3.684;2022-09-25T07:55:55;3.28;;;1.60;;
56423;SDS011;42329;43.516;3.684;2022-09-25T07:58:30;3.50;;;1.85;;
56423;SDS011;42329;43.516;3.684;2022-09-25T08:00:58;2.03;;;1.52;;
56423;SDS011;42329;43.516;3.684;2022-09-25T08:03:25;1.48;;;1.38;;
56423;SDS011;42329;43.516;3.684;2022-09-25T08:05:57;2.42;;;1.55;;
56423;SDS011;42329;43.516;3.684;2022-09-25T08:08:26;1.77;;;1.40;;
56423;SDS011;42329;43.516;3.684;2022-09-25T08:10:58;4.95;;;1.50;;
56423;SDS011;42329;43.516;3.684;2022-09-25T08:13:26;1.15;;;1.13;;
56423;SDS011;42329;43.516;3.684;2022-09-25T08:15:54;1.17;;;1.02;;
56423;SDS011;42329;43.516;3.684;2022-09-25T08:18:21;1.35;;;1.10;;
56423;SDS011;42329;43.516;3.684;2022-09-25T08:20:49;2.90;;;1.25;;
56423;SDS011;42329;43.516;3.684;2022-09-25T08:23:17;1.85;;;1.20;;
56423;SDS011;42329;43.516;3.684;2022-09-25T08:25:47;2.13;;;1.60;;
56423;SDS011;42329;43.516;3.684;2022-09-25T08:28:15;1.65;;;1.25;;
56423;SDS011;42329;43.516;3.684;2022-09-25T08:30:43;1.75;;;1.40;;
56423;SDS011;42329;43.516;3.684;2022-09-25T08:33:11;1.60;;;1.17;;
56423;SDS011;42329;43.516;3.684;2022-09-25T08:35:39;3.22;;;1.40;;
56423;SDS011;42329;43.516;3.684;2022-09-25T08:38:07;4.65;;;1.80;;
56423;SDS011;42329;43.516;3.684;2022-09-25T08:40:36;2.10;;;1.30;;
56423;SDS011;42329;43.516;3.684;2022-09-25T08:43:06;1.10;;;1.02;;
56423;SDS011;42329;43.516;3.684;2022-09-25T08:45:34;5.43;;;1.52;;
56423;SDS011;42329;43.516;3.684;2022-09-25T08:48:26;1.98;;;1.38;;
56423;SDS011;42329;43.516;3.684;2022-09-25T08:51:13;1.88;;;1.35;;
56423;SDS011;42329;43.516;3.684;2022-09-25T08:53:40;1.20;;;0.95;;
56423;SDS011;42329;43.516;3.684;2022-09-25T08:56:10;1.92;;;1.20;;
56423;SDS011;42329;43.516;3.684;2022-09-25T08:58:46;2.40;;;1.40;;
56423;SDS011;42329;43.516;3.684;2022-09-25T09:01:15;1.17;;;1.08;;
56423;SDS011;42329;43.516;3.684;2022-09-25T09:03:44;1.10;;;1.05;;
56423;SDS011;42329;43.516;3.684;2022-09-25T09:06:13;2.22;;;1.10;;
56423;SDS011;42329;43.516;3.684;2022-09-25T09:08:42;1.40;;;1.10;;
56423;SDS011;42329;43.516;3.684;2022-09-25T09:11:14;1.27;;;1.17;;
56423;SDS011;42329;43.516;3.684;2022-09-25T09:13:47;1.63;;;1.48;;
56423;SDS011;42329;43.516;3.684;2022-09-25T09:16:18;3.13;;;1.30;;
56423;SDS011;42329;43.516;3.684;2022-09-25T09:18:47;1.23;;;1.13;;
56423;SDS011;42329;43.516;3.684;2022-09-25T09:21:17;1.63;;;1.20;;
56423;SDS011;42329;43.516;3.684;2022-09-25T09:23:48;2.38;;;1.23;;
56423;SDS011;42329;43.516;3.684;2022-09-25T09:26:18;4.20;;;1.17;;
56423;SDS011;42329;43.516;3.684;2022-09-25T09:31:38;2.35;;;1.52;;
56423;SDS011;42329;43.516;3.684;2022-09-25T09:34:19;2.67;;;1.20;;
56423;SDS011;42329;43.516;3.684;2022-09-25T09:36:51;4.20;;;1.42;;
56423;SDS011;42329;43.516;3.684;2022-09-25T09:39:23;2.45;;;1.00;;
56423;SDS011;42329;43.516;3.684;2022-09-25T09:41:55;1.10;;;1.00;;
56423;SDS011;42329;43.516;3.684;2022-09-25T09:44:31;1.10;;;1.10;;
56423;SDS011;42329;43.516;3.684;2022-09-25T09:47:11;1.35;;;1.20;;
56423;SDS011;42329;43.516;3.684;2022-09-25T09:49:42;1.30;;;1.10;;
56423;SDS011;42329;43.516;3.684;2022-09-25T09:52:12;2.28;;;0.90;;
56423;SDS011;42329;43.516;3.684;2022-09-25T09:54:43;1.52;;;1.00;;
56423;SDS011;42329;43.516;3.684;2022-09-25T09:57:14;1.63;;;1.10;;
56423;SDS011;42329;43.516;3.684;2022-09-25T09:59:44;1.25;;;1.13;;
56423;SDS011;42329;43.516;3.684;2022-09-25T10:02:18;1.70;;;1.10;;
56423;SDS011;42329;43.516;3.684;2022-09-25T10:04:47;2.95;;;0.90;;
56423;SDS011;42329;43.516;3.684;2022-09-25T10:07:16;1.75;;;1.27;;
56423;SDS011;42329;43.516;3.684;2022-09-25T10:09:46;1.92;;;1.15;;
56423;SDS011;42329;43.516;3.684;2022-09-25T10:12:18;4.57;;;1.25;;
56423;SDS011;42329;43.516;3.684;2022-09-25T10:14:49;1.15;;;1.02;;
56423;SDS011;42329;43.516;3.684;2022-09-25T10:17:18;0.90;;;0.90;;
56423;SDS011;42329;43.516;3.684;2022-09-25T10:19:48;2.70;;;1.23;;
56423;SDS011;42329;43.516;3.684;2022-09-25T10:22:18;2.22;;;1.15;;
56423;SDS011;42329;43.516;3.684;2022-09-25T10:24:47;2.95;;;2.00;;
56423;SDS011;42329;43.516;3.684;2022-09-25T10:27:20;3.28;;;2.65;;
56423;SDS011;42329;43.516;3.684;2022-09-25T10:29:59;1.92;;;1.70;;
56423;SDS011;42329;43.516;3.684;2022-09-25T10:32:28;2.70;;;2.20;;
56423;SDS011;42329;43.516;3.684;2022-09-25T10:34:56;1.65;;;1.10;;
56423;SDS011;42329;43.516;3.684;2022-09-25T10:37:24;1.50;;;1.23;;
56423;SDS011;42329;43.516;3.684;2022-09-25T10:40:01;2.00;;;0.95;;
56423;SDS011;42329;43.516;3.684;2022-09-25T10:42:30;0.95;;;0.88;;
56423;SDS011;42329;43.516;3.684;2022-09-25T10:44:58;2.33;;;0.85;;
56423;SDS011;42329;43.516;3.684;2022-09-25T10:47:29;1.35;;;1.08;;
56423;SDS011;42329;43.516;3.684;2022-09-25T10:50:16;0.82;;;0.77;;
56423;SDS011;42329;43.516;3.684;2022-09-25T10:52:45;0.90;;;0.90;;
56423;SDS011;42329;43.516;3.684;2022-09-25T10:55:19;2.70;;;1.70;;
56423;SDS011;42329;43.516;3.684;2022-09-25T10:57:51;1.10;;;1.00;;
56423;SDS011;42329;43.516;3.684;2022-09-25T11:00:20;2.67;;;1.80;;
56423;SDS011;42329;43.516;3.684;2022-09-25T11:02:50;2.55;;;1.83;;
56423;SDS011;42329;43.516;3.684;2022-09-25T11:05:19;2.28;;;1.73;;
56423;SDS011;42329;43.516;3.684;2022-09-25T11:07:47;4.07;;;2.40;;
56423;SDS011;42329;43.516;3.684;2022-09-25T11:10:19;5.00;;;1.30;;
56423;SDS011;42329;43.516;3.684;2022-09-25T11:12:47;2.88;;;2.00;;
56423;SDS011;42329;43.516;3.684;2022-09-25T11:15:16;2.97;;;2.60;;
56423;SDS011;42329;43.516;3.684;2022-09-25T11:17:45;1.92;;;1.75;;
56423;SDS011;42329;43.516;3.684;2022-09-25T11:20:21;2.05;;;1.30;;
56423;SDS011;42329;43.516;3.684;2022-09-25T11:22:59;4.22;;;1.85;;
56423;SDS011;42329;43.516;3.684;2022-09-25T11:25:30;2.90;;;1.35;;
56423;SDS011;42329;43.516;3.684;2022-09-25T11:28:01;1.55;;;1.20;;
56423;SDS011;42329;43.516;3.684;2022-09-25T11:30:33;1.08;;;1.05;;
56423;SDS011;42329;43.516;3.684;2022-09-25T11:33:05;3.33;;;0.90;;
56423;SDS011;42329;43.516;3.684;2022-09-25T11:35:44;1.77;;;0.88;;
56423;SDS011;42329;43.516;3.684;2022-09-25T11:38:16;1.55;;;0.88;;
56423;SDS011;42329;43.516;3.684;2022-09-25T11:41:08;1.83;;;1.17;;
56423;SDS011;42329;43.516;3.684;2022-09-25T11:43:42;0.90;;;0.90;;
56423;SDS011;42329;43.516;3.684;2022-09-25T11:46:20;0.80;;;0.80;;
56423;SDS011;42329;43.516;3.684;2022-09-25T11:48:51;1.00;;;0.90;;
56423;SDS011;42329;43.516;3.684;2022-09-25T11:51:25;1.02;;;0.98;;
56423;SDS011;42329;43.516;3.684;2022-09-25T11:53:55;1.58;;;1.23;;
56423;SDS011;42329;43.516;3.684;2022-09-25T11:56:29;1.33;;;1.23;;
56423;SDS011;42329;43.516;3.684;2022-09-25T11:59:04;1.45;;;1.10;;
56423;SDS011;42329;43.516;3.684;2022-09-25T12:01:37;1.85;;;1.27;;
56423;SDS011;42329;43.516;3.684;2022-09-25T12:07:13;0.80;;;0.77;;
56423;SDS011;42329;43.516;3.684;2022-09-25T12:09:50;1.42;;;1.13;;
56423;SDS011;42329;43.516;3.684;2022-09-25T12:12:23;1.08;;;0.98;;
56423;SDS011;42329;43.516;3.684;2022-09-25T12:14:55;1.83;;;0.90;;
56423;SDS011;42329;43.516;3.684;2022-09-25T12:17:30;1.63;;;1.05;;
56423;SDS011;42329;43.516;3.684;2022-09-25T12:20:02;1.98;;;0.80;;
56423;SDS011;42329;43.516;3.684;2022-09-25T12:22:38;2.88;;;1.10;;
56423;SDS011;42329;43.516;3.684;2022-09-25T12:25:10;1.85;;;1.00;;
56423;SDS011;42329;43.516;3.684;2022-09-25T12:27:45;2.58;;;0.90;;
56423;SDS011;42329;43.516;3.684;2022-09-25T12:30:16;7.63;;;0.75;;
56423;SDS011;42329;43.516;3.684;2022-09-25T12:32:52;1.10;;;0.98;;
56423;SDS011;42329;43.516;3.684;2022-09-25T12:35:28;1.80;;;0.93;;
56423;SDS011;42329;43.516;3.684;2022-09-25T12:38:01;1.33;;;0.75;;
56423;SDS011;42329;43.516;3.684;2022-09-25T12:40:31;1.20;;;1.10;;
56423;SDS011;42329;43.516;3.684;2022-09-25T12:43:01;0.85;;;0.85;;
56423;SDS011;42329;43.516;3.684;2022-09-25T12:45:30;3.75;;;0.80;;
56423;SDS011;42329;43.516;3.684;2022-09-25T12:48:05;0.93;;;0.93;;
56423;SDS011;42329;43.516;3.684;2022-09-25T12:50:37;1.27;;;0.90;;
56423;SDS011;42329;43.516;3.684;2022-09-25T12:53:12;2.03;;;1.02;;
56423;SDS011;42329;43.516;3.684;2022-09-25T12:55:45;1.58;;;0.77;;
56423;SDS011;42329;43.516;3.684;2022-09-25T12:58:15;1.38;;;0.90;;
56423;SDS011;42329;43.516;3.684;2022-09-25T13:00:46;0.93;;;0.75;;
56423;SDS011;42329;43.516;3.684;2022-09-25T13:03:16;1.60;;;1.00;;
56423;SDS011;42329;43.516;3.684;2022-09-25T13:05:48;2.78;;;0.70;;
56423;SDS011;42329;43.516;3.684;2022-09-25T13:08:20;1.10;;;0.90;;
56423;SDS011;42329;43.516;3.684;2022-09-25T13:10:51;0.75;;;0.75;;
56423;SDS011;42329;43.516;3.684;2022-09-25T13:13:19;0.70;;;0.70;;
56423;SDS011;42329;43.516;3.684;2022-09-25T13:15:49;1.17;;;1.08;;
56423;SDS011;42329;43.516;3.684;2022-09-25T13:18:19;1.90;;;0.90;;
56423;SDS011;42329;43.516;3.684;2022-09-25T13:20:48;1.55;;;0.80;;
56423;SDS011;42329;43.516;3.684;2022-09-25T13:23:21;1.35;;;0.75;;
56423;SDS011;42329;43.516;3.684;2022-09-25T13:25:51;2.45;;;1.13;;
56423;SDS011;42329;43.516;3.684;2022-09-25T13:28:26;0.73;;;0.70;;
56423;SDS011;42329;43.516;3.684;2022-09-25T13:31:02;1.05;;;0.75;;
56423;SDS011;42329;43.516;3.684;2022-09-25T13:33:31;1.30;;;0.88;;
56423;SDS011;42329;43.516;3.684;2022-09-25T13:36:04;0.68;;;0.68;;
56423;SDS011;42329;43.516;3.684;2022-09-25T13:38:37;1.23;;;0.90;;
56423;SDS011;42329;43.516;3.684;2022-09-25T13:41:24;0.80;;;0.80;;
56423;SDS011;42329;43.516;3.684;2022-09-25T13:46:40;1.38;;;0.60;;
56423;SDS011;42329;43.516;3.684;2022-09-25T13:51:50;1.95;;;0.73;;
56423;SDS011;42329;43.516;3.684;2022-09-25T13:54:23;1.98;;;0.85;;
56423;SDS011;42329;43.516;3.684;2022-09-25T13:56:52;0.85;;;0.70;;
56423;SDS011;42329;43.516;3.684;2022-09-25T13:59:21;0.60;;;0.60;;
56423;SDS011;42329;43.516;3.684;2022-09-25T14:01:50;1.73;;;0.63;;
56423;SDS011;42329;43.516;3.684;2022-09-25T14:04:34;2.45;;;0.70;;
56423;SDS011;42329;43.516;3.684;2022-09-25T14:07:10;0.70;;;0.70;;
56423;SDS011;42329;43.516;3.684;2022-09-25T14:09:41;2.22;;;0.70;;
56423;SDS011;42329;43.516;3.684;2022-09-25T14:12:15;0.85;;;0.73;;
56423;SDS011;42329;43.516;3.684;2022-09-25T14:14:46;2.15;;;0.75;;
56423;SDS011;42329;43.516;3.684;2022-09-25T14:17:17;0.80;;;0.73;;
56423;SDS011;42329;43.516;3.684;2022-09-25T14:19:46;1.15;;;0.60;;
56423;SDS011;42329;43.516;3.684;2022-09-25T14:22:17;0.90;;;0.57;;
56423;SDS011;42329;43.516;3.684;2022-09-25T14:24:45;0.90;;;0.73;;
56423;SDS011;42329;43.516;3.684;2022-09-25T14:27:20;1.48;;;0.70;;
56423;SDS011;42329;43.516;3.684;2022-09-25T14:29:50;1.00;;;0.90;;
56423;SDS011;42329;43.516;3.684;2022-09-25T14:32:21;0.90;;;0.82;;
56423;SDS011;42329;43.516;3.684;2022-09-25T14:34:55;0.88;;;0.63;;
56423;SDS011;42329;43.516;3.684;2022-09-25T14:37:30;3.40;;;0.70;;
56423;SDS011;42329;43.516;3.684;2022-09-25T14:40:02;0.65;;;0.63;;
56423;SDS011;42329;43.516;3.684;2022-09-25T14:42:38;0.60;;;0.55;;
56423;SDS011;42329;43.516;3.684;2022-09-25T14:47:55;0.77;;;0.63;;
56423;SDS011;42329;43.516;3.684;2022-09-25T14:50:25;0.68;;;0.65;;
56423;SDS011;42329;43.516;3.684;2022-09-25T14:52:54;0.85;;;0.60;;
56423;SDS011;42329;43.516;3.684;2022-09-25T14:55:24;0.52;;;0.52;;
56423;SDS011;42329;43.516;3.684;2022-09-25T14:57:53;0.88;;;0.70;;
56423;SDS011;42329;43.516;3.684;2022-09-25T15:00:22;0.68;;;0.68;;
56423;SDS011;42329;43.516;3.684;2022-09-25T15:02:51;0.85;;;0.80;;
56423;SDS011;42329;43.516;3.684;2022-09-25T15:05:27;0.80;;;0.80;;
56423;SDS011;42329;43.516;3.684;2022-09-25T15:07:55;0.43;;;0.43;;
56423;SDS011;42329;43.516;3.684;2022-09-25T15:10:25;1.75;;;0.85;;
56423;SDS011;42329;43.516;3.684;2022-09-25T15:13:03;0.70;;;0.70;;
56423;SDS011;42329;43.516;3.684;2022-09-25T15:15:31;1.02;;;0.88;;
56423;SDS011;42329;43.516;3.684;2022-09-25T15:17:59;2.58;;;0.65;;
56423;SDS011;42329;43.516;3.684;2022-09-25T15:20:27;1.02;;;0.90;;
56423;SDS011;42329;43.516;3.684;2022-09-25T15:22:57;1.00;;;0.73;;
56423;SDS011;42329;43.516;3.684;2022-09-25T15:25:27;1.77;;;0.98;;